createdAt,value
2022-10-30T00:00:03.569Z,75.98
2022-10-30T00:04:07.263Z,75.42
2022-10-30T00:08:20.758Z,75.59
2022-10-30T00:12:26.794Z,74.45
2022-10-30T00:16:31.030Z,73.38
2022-10-30T00:20:36.795Z,73.37
2022-10-30T00:24:41.781Z,73.70
2022-10-30T00:29:00.808Z,73.80
2022-10-30T00:33:06.669Z,74.35
2022-10-30T00:37:23.031Z,74.63
2022-10-30T00:41:26.706Z,74.35
2022-10-30T00:45:40.946Z,74.52
2022-10-30T00:49:56.948Z,74.51
2022-10-30T00:54:05.340Z,74.22
2022-10-30T00:58:23.697Z,74.15
2022-10-30T01:02:30.926Z,74.31
2022-10-30T01:06:37.314Z,74.47
2022-10-30T01:10:40.919Z,74.46
2022-10-30T01:14:49.184Z,74.29
2022-10-30T01:19:01.148Z,74.19
2022-10-30T01:23:17.426Z,74.30
2022-10-30T01:27:37.024Z,74.54
2022-10-30T01:31:53.914Z,74.56
2022-10-30T01:36:04.728Z,74.97
2022-10-30T01:40:13.489Z,75.13
2022-10-30T01:44:21.825Z,75.22
2022-10-30T01:48:51.808Z,74.82
2022-10-30T01:53:05.051Z,74.87
2022-10-30T01:57:14.273Z,74.87
2022-10-30T02:01:18.388Z,74.75
2022-10-30T02:05:28.306Z,74.25
2022-10-30T02:09:33.677Z,74.75
2022-10-30T02:13:37.778Z,74.30
2022-10-30T02:17:41.766Z,74.42
2022-10-30T02:21:46.810Z,73.95
2022-10-30T02:25:49.813Z,73.94
2022-10-30T02:29:53.297Z,73.99
2022-10-30T02:33:57.163Z,73.74
2022-10-30T02:38:02.717Z,73.86
2022-10-30T02:46:09.139Z,74.03
2022-10-30T02:50:12.499Z,74.06
2022-10-30T02:54:17.378Z,74.30
2022-10-30T02:58:20.465Z,74.06
2022-10-30T03:02:24.056Z,74.21
2022-10-30T03:06:27.970Z,73.92
2022-10-30T03:10:32.356Z,73.98
2022-10-30T03:14:35.907Z,73.87
2022-10-30T03:18:39.806Z,74.00
2022-10-30T03:22:42.825Z,73.81
2022-10-30T03:26:48.795Z,73.69
2022-10-30T03:30:53.464Z,74.29
2022-10-30T03:34:56.522Z,73.74
2022-10-30T03:39:00.099Z,73.80
2022-10-30T03:43:05.003Z,73.83
2022-10-30T03:47:08.563Z,73.98
2022-10-30T03:51:11.616Z,74.15
2022-10-30T03:55:15.200Z,74.11
2022-10-30T03:59:20.047Z,74.29
2022-10-30T04:03:23.392Z,73.99
2022-10-30T04:07:27.261Z,74.00
2022-10-30T04:11:31.034Z,73.94
2022-10-30T04:15:36.017Z,74.05
2022-10-30T04:19:39.792Z,74.04
2022-10-30T04:23:43.298Z,74.18
2022-10-30T04:27:47.153Z,74.62
2022-10-30T04:31:51.644Z,74.67
2022-10-30T04:35:55.550Z,74.69
2022-10-30T04:39:58.845Z,74.67
2022-10-30T04:44:02.240Z,74.47
2022-10-30T04:48:09.708Z,74.45
2022-10-30T04:52:13.147Z,74.35
2022-10-30T04:56:17.078Z,74.35
2022-10-30T05:00:20.705Z,74.44
2022-10-30T05:04:25.271Z,74.36
2022-10-30T05:08:28.909Z,74.13
2022-10-30T05:12:32.320Z,74.38
2022-10-30T05:16:35.507Z,74.40
2022-10-30T05:20:40.396Z,74.31
2022-10-30T05:24:43.958Z,74.27
2022-10-30T05:28:48.077Z,74.27
2022-10-30T05:32:51.622Z,74.37
2022-10-30T05:36:55.974Z,74.35
2022-10-30T05:40:59.449Z,74.38
2022-10-30T05:45:02.959Z,74.42
2022-10-30T05:49:06.398Z,74.18
2022-10-30T05:53:11.691Z,74.32
2022-10-30T05:57:14.731Z,74.46
2022-10-30T06:01:18.813Z,74.54
2022-10-30T06:05:22.489Z,74.44
2022-10-30T06:09:27.463Z,74.63
2022-10-30T06:13:30.535Z,74.55
2022-10-30T06:17:34.134Z,74.43
2022-10-30T06:21:37.245Z,74.02
2022-10-30T06:25:41.863Z,73.98
2022-10-30T06:29:44.910Z,73.67
2022-10-30T06:33:48.418Z,73.52
2022-10-30T06:37:54.076Z,73.59
2022-10-30T06:41:59.017Z,73.47
2022-10-30T06:46:02.295Z,73.28
2022-10-30T07:01:03.632Z,74.54
2022-10-30T07:06:02.403Z,74.67
2022-10-30T07:21:47.425Z,74.39
2022-10-30T07:26:47.456Z,74.14
2022-10-30T08:13:15.216Z,72.66
2022-10-30T08:17:18.300Z,72.77
2022-10-30T08:21:21.661Z,71.44
2022-10-30T08:25:26.598Z,71.44
2022-10-30T08:29:34.821Z,71.96
2022-10-30T08:33:37.860Z,69.43
2022-10-30T08:37:40.894Z,69.80
2022-10-30T08:41:44.057Z,68.25
2022-10-30T08:45:48.959Z,68.24
2022-10-30T08:49:52.555Z,67.37
2022-10-30T08:53:55.612Z,66.18
2022-10-30T08:57:59.431Z,66.83
2022-10-30T09:02:04.586Z,66.80
2022-10-30T09:06:08.317Z,65.84
2022-10-30T09:10:12.766Z,66.38
2022-10-30T09:14:15.792Z,65.98
2022-10-30T09:18:20.777Z,65.36
2022-10-30T09:22:23.839Z,65.48
2022-10-30T09:26:27.368Z,64.44
2022-10-30T09:30:30.439Z,64.93
2022-10-30T09:34:35.161Z,63.54
2022-10-30T09:38:38.638Z,60.91
2022-10-30T09:42:46.113Z,61.89
2022-10-30T09:47:02.595Z,62.60
2022-10-30T09:51:17.144Z,61.99
2022-10-30T09:55:40.435Z,61.04
2022-10-30T09:59:58.370Z,62.11
2022-10-30T10:04:08.003Z,61.54
2022-10-30T10:08:19.284Z,61.01
2022-10-30T10:12:31.097Z,59.99
2022-10-30T10:16:37.278Z,58.19
2022-10-30T10:20:43.551Z,58.71
2022-10-30T10:24:49.101Z,58.55
2022-10-30T10:29:15.964Z,59.30
2022-10-30T10:33:32.770Z,57.42
2022-10-30T10:37:44.839Z,56.80
2022-10-30T10:42:10.367Z,58.79
2022-10-30T10:46:36.469Z,57.72
2022-10-30T10:50:49.492Z,56.00
2022-10-30T10:54:58.849Z,55.43
2022-10-30T10:59:09.092Z,54.83
2022-10-30T11:07:28.798Z,59.48
2022-10-30T11:11:32.288Z,52.79
2022-10-30T11:15:47.490Z,54.46
2022-10-30T11:19:56.346Z,51.80
2022-10-30T11:23:59.485Z,50.61
2022-10-30T11:28:06.559Z,49.99
2022-10-30T11:32:22.226Z,52.31
2022-10-30T11:36:27.693Z,49.70
2022-10-30T11:40:31.305Z,49.70
2022-10-30T11:44:38.841Z,50.20
2022-10-30T11:48:46.487Z,51.06
2022-10-30T11:52:52.636Z,49.45
2022-10-30T11:56:57.156Z,49.76
2022-10-30T12:01:03.122Z,49.84
2022-10-30T12:05:33.061Z,52.88
2022-10-30T12:09:44.278Z,51.56
2022-10-30T12:13:48.064Z,49.42
2022-10-30T12:17:55.332Z,50.75
2022-10-30T12:22:03.654Z,52.35
2022-10-30T12:26:12.770Z,50.80
2022-10-30T12:30:20.085Z,50.22
2022-10-30T12:34:37.976Z,51.76
2022-10-30T12:38:46.847Z,51.30
2022-10-30T12:42:56.971Z,50.13
2022-10-30T12:47:05.125Z,49.99
2022-10-30T12:51:21.217Z,50.69
2022-10-30T12:55:36.282Z,50.71
2022-10-30T12:59:52.491Z,51.39
2022-10-30T13:03:59.046Z,50.26
2022-10-30T13:08:16.227Z,50.71
2022-10-30T13:12:25.723Z,52.00
2022-10-30T13:16:31.940Z,50.94
2022-10-30T13:20:36.297Z,50.58
2022-10-30T13:24:50.147Z,51.67
2022-10-30T13:29:00.926Z,51.71
2022-10-30T13:33:16.035Z,51.89
2022-10-30T13:37:28.302Z,51.85
2022-10-30T13:41:41.290Z,51.65
2022-10-30T13:45:57.869Z,52.10
2022-10-30T13:50:21.792Z,52.41
2022-10-30T13:54:29.947Z,52.22
2022-10-30T13:58:41.877Z,52.47
2022-10-30T14:03:12.079Z,53.04
2022-10-30T14:07:26.715Z,52.97
2022-10-30T14:11:30.378Z,53.58
2022-10-30T14:15:36.209Z,53.58
2022-10-30T14:20:27.271Z,54.54
2022-10-30T14:24:33.324Z,53.79
2022-10-30T14:28:38.159Z,53.46
2022-10-30T14:32:53.967Z,54.50
2022-10-30T14:36:58.962Z,54.26
2022-10-30T14:41:21.176Z,55.00
2022-10-30T14:45:29.394Z,55.92
2022-10-30T14:49:49.445Z,56.79
2022-10-30T14:54:04.124Z,57.67
2022-10-30T14:58:20.122Z,58.23
2022-10-30T15:02:39.420Z,58.80
2022-10-30T15:06:55.487Z,59.20
2022-10-30T15:11:22.539Z,59.33
2022-10-30T15:15:25.889Z,60.31
2022-10-30T15:19:30.630Z,61.20
2022-10-30T15:23:37.347Z,61.48
2022-10-30T15:27:44.847Z,62.16
2022-10-30T15:31:59.030Z,61.88
2022-10-30T15:36:02.862Z,63.24
2022-10-30T15:40:18.904Z,62.94
2022-10-30T15:44:26.119Z,64.03
2022-10-30T15:48:31.947Z,64.48
2022-10-30T15:52:36.776Z,64.87
2022-10-30T15:57:18.045Z,64.89
2022-10-30T16:01:26.685Z,64.57
2022-10-30T16:05:31.063Z,66.20
2022-10-30T16:09:34.160Z,66.77
2022-10-30T16:13:38.120Z,67.10
2022-10-30T16:17:43.468Z,67.20
2022-10-30T16:21:48.742Z,67.89
2022-10-30T16:25:57.727Z,67.65
2022-10-30T16:30:02.605Z,68.29
2022-10-30T16:34:15.086Z,68.37
2022-10-30T16:38:19.604Z,69.00
2022-10-30T16:42:24.820Z,68.83
2022-10-30T16:46:39.076Z,68.13
2022-10-30T16:50:44.376Z,68.89
2022-10-30T16:54:51.200Z,68.83
2022-10-30T16:58:56.192Z,69.44
2022-10-30T17:03:00.944Z,69.54
2022-10-30T17:07:19.205Z,68.55
2022-10-30T17:11:36.091Z,68.66
2022-10-30T17:15:39.741Z,70.21
2022-10-30T17:19:48.798Z,69.79
2022-10-30T17:23:57.715Z,70.04
2022-10-30T17:28:01.460Z,69.39
2022-10-30T17:32:05.837Z,69.39
2022-10-30T17:36:10.166Z,69.84
2022-10-30T17:40:15.766Z,70.57
2022-10-30T17:44:22.345Z,70.92
2022-10-30T17:48:28.381Z,71.14
2022-10-30T17:52:31.365Z,71.28
2022-10-30T17:56:36.359Z,71.35
2022-10-30T18:00:39.420Z,71.04
2022-10-30T18:04:44.104Z,70.93
2022-10-30T18:08:50.777Z,70.58
2022-10-30T18:12:56.639Z,71.48
2022-10-30T18:17:00.482Z,72.31
2022-10-30T18:21:03.696Z,72.25
2022-10-30T18:25:17.221Z,71.73
2022-10-30T18:29:21.902Z,72.62
2022-10-30T18:33:25.673Z,72.77
2022-10-30T18:37:28.848Z,73.35
2022-10-30T18:41:35.556Z,72.78
2022-10-30T18:45:42.049Z,72.43
2022-10-30T18:49:45.694Z,73.17
2022-10-30T18:53:52.842Z,73.12
2022-10-30T18:57:56.009Z,72.85
2022-10-30T19:02:02.581Z,73.34
2022-10-30T19:06:07.714Z,73.48
2022-10-30T19:10:11.688Z,72.44
2022-10-30T19:14:16.173Z,73.05
2022-10-30T19:18:22.211Z,73.50
2022-10-30T19:22:25.332Z,73.95
2022-10-30T19:26:29.110Z,73.89
2022-10-30T19:30:32.885Z,73.61
2022-10-30T19:34:39.176Z,73.32
2022-10-30T19:38:42.775Z,73.49
2022-10-30T19:42:46.900Z,73.55
2022-10-30T19:46:50.305Z,73.53
2022-10-30T19:50:55.393Z,73.90
2022-10-30T19:54:58.499Z,73.87
2022-10-30T19:59:04.220Z,74.32
2022-10-30T20:03:09.442Z,73.94
2022-10-30T20:07:14.717Z,74.40
2022-10-30T20:11:21.149Z,74.49
2022-10-30T20:15:25.658Z,74.12
2022-10-30T20:19:30.804Z,74.30
2022-10-30T20:23:36.549Z,74.33
2022-10-30T20:27:41.373Z,74.27
2022-10-30T20:31:44.639Z,74.98
2022-10-30T20:35:48.969Z,74.88
2022-10-30T20:39:53.812Z,74.25
2022-10-30T20:43:57.730Z,74.19
2022-10-30T20:48:01.712Z,74.21
2022-10-30T20:52:05.508Z,74.71
2022-10-30T20:56:11.971Z,74.55
2022-10-30T21:00:16.174Z,74.85
2022-10-30T21:04:19.750Z,74.48
2022-10-30T21:08:23.065Z,74.82
2022-10-30T21:12:28.158Z,74.91
2022-10-30T21:16:31.518Z,74.90
2022-10-30T21:20:35.586Z,74.79
2022-10-30T21:24:38.600Z,74.80
2022-10-30T21:28:44.243Z,74.13
2022-10-30T21:32:48.797Z,74.38
2022-10-30T21:36:52.063Z,74.36
2022-10-30T21:40:58.541Z,73.76
2022-10-30T21:53:45.611Z,73.26
2022-10-30T21:57:49.442Z,73.06
2022-10-30T22:01:53.826Z,72.94
